sensor_id;sensor_type;location;lat;lon;timestamp;temperature;humidity
55213;DHT22;41083;52.932;6.674;2024-03-02T00:01:41;7.70;99.90
55213;DHT22;41083;52.932;6.674;2024-03-02T00:04:07;7.70;99.90
55213;DHT22;41083;52.932;6.674;2024-03-02T00:06:34;7.70;99.90
55213;DHT22;41083;52.932;6.674;2024-03-02T00:09:00;7.70;99.90
55213;DHT22;41083;52.932;6.674;2024-03-02T00:11:25;7.70;99.90
55213;DHT22;41083;52.932;6.674;2024-03-02T00:13:53;7.70;99.90
55213;DHT22;41083;52.932;6.674;2024-03-02T00:16:19;7.80;99.90
55213;DHT22;41083;52.932;6.674;2024-03-02T00:18:45;7.70;99.90
55213;DHT22;41083;52.932;6.674;2024-03-02T00:21:12;7.70;99.90
55213;DHT22;41083;52.932;6.674;2024-03-02T00:23:40;7.80;99.90
55213;DHT22;41083;52.932;6.674;2024-03-02T00:26:05;7.80;99.90
55213;DHT22;41083;52.932;6.674;2024-03-02T00:28:33;7.80;99.90
55213;DHT22;41083;52.932;6.674;2024-03-02T00:31:05;7.80;99.90
55213;DHT22;41083;52.932;6.674;2024-03-02T00:33:36;7.80;99.90
55213;DHT22;41083;52.932;6.674;2024-03-02T00:36:04;7.80;99.90
55213;DHT22;41083;52.932;6.674;2024-03-02T00:38:30;7.80;99.90
55213;DHT22;41083;52.932;6.674;2024-03-02T00:40:58;7.80;99.90
55213;DHT22;41083;52.932;6.674;2024-03-02T00:46:04;7.80;99.90
55213;DHT22;41083;52.932;6.674;2024-03-02T00:48:30;7.80;99.90
55213;DHT22;41083;52.932;6.674;2024-03-02T00:50:57;7.80;99.90
55213;DHT22;41083;52.932;6.674;2024-03-02T00:53:23;7.80;99.90
55213;DHT22;41083;52.932;6.674;2024-03-02T00:55:51;7.80;99.90
55213;DHT22;41083;52.932;6.674;2024-03-02T00:58:16;7.80;99.90
55213;DHT22;41083;52.932;6.674;2024-03-02T01:00:42;7.80;99.90
55213;DHT22;41083;52.932;6.674;2024-03-02T01:03:07;7.80;99.90
55213;DHT22;41083;52.932;6.674;2024-03-02T01:05:33;7.80;99.90
55213;DHT22;41083;52.932;6.674;2024-03-02T01:07:59;7.80;99.90
55213;DHT22;41083;52.932;6.674;2024-03-02T01:10:25;7.80;99.90
55213;DHT22;41083;52.932;6.674;2024-03-02T01:12:51;7.80;99.90
55213;DHT22;41083;52.932;6.674;2024-03-02T01:15:17;7.90;99.90
55213;DHT22;41083;52.932;6.674;2024-03-02T01:17:43;7.80;99.90
55213;DHT22;41083;52.932;6.674;2024-03-02T01:20:09;7.90;99.90
55213;DHT22;41083;52.932;6.674;2024-03-02T01:22:35;7.90;99.90
55213;DHT22;41083;52.932;6.674;2024-03-02T01:25:01;7.90;99.90
55213;DHT22;41083;52.932;6.674;2024-03-02T01:27:27;7.90;99.90
55213;DHT22;41083;52.932;6.674;2024-03-02T01:29:53;7.90;99.90
55213;DHT22;41083;52.932;6.674;2024-03-02T01:32:20;7.90;99.90
55213;DHT22;41083;52.932;6.674;2024-03-02T01:34:46;7.90;99.90
55213;DHT22;41083;52.932;6.674;2024-03-02T01:37:11;7.90;99.90
55213;DHT22;41083;52.932;6.674;2024-03-02T01:39:37;7.90;99.90
55213;DHT22;41083;52.932;6.674;2024-03-02T01:42:03;7.80;99.90
55213;DHT22;41083;52.932;6.674;2024-03-02T01:44:28;7.90;99.90
55213;DHT22;41083;52.932;6.674;2024-03-02T01:46:54;7.90;99.90
55213;DHT22;41083;52.932;6.674;2024-03-02T01:49:20;7.80;99.90
55213;DHT22;41083;52.932;6.674;2024-03-02T01:51:46;7.90;99.90
55213;DHT22;41083;52.932;6.674;2024-03-02T01:54:11;7.80;99.90
55213;DHT22;41083;52.932;6.674;2024-03-02T01:56:37;7.80;99.90
55213;DHT22;41083;52.932;6.674;2024-03-02T01:59:03;7.80;99.90
55213;DHT22;41083;52.932;6.674;2024-03-02T02:01:29;7.80;99.90
55213;DHT22;41083;52.932;6.674;2024-03-02T02:03:54;7.80;99.90
55213;DHT22;41083;52.932;6.674;2024-03-02T02:06:21;7.80;99.90
55213;DHT22;41083;52.932;6.674;2024-03-02T02:08:47;7.80;99.90
55213;DHT22;41083;52.932;6.674;2024-03-02T02:11:16;7.80;99.90
55213;DHT22;41083;52.932;6.674;2024-03-02T02:13:42;7.80;99.90
55213;DHT22;41083;52.932;6.674;2024-03-02T02:16:08;7.80;99.90
55213;DHT22;41083;52.932;6.674;2024-03-02T02:18:34;7.80;99.90
55213;DHT22;41083;52.932;6.674;2024-03-02T02:21:01;7.80;99.90
55213;DHT22;41083;52.932;6.674;2024-03-02T02:23:27;7.80;99.90
55213;DHT22;41083;52.932;6.674;2024-03-02T02:25:53;7.80;99.90
55213;DHT22;41083;52.932;6.674;2024-03-02T02:28:18;7.90;99.90
55213;DHT22;41083;52.932;6.674;2024-03-02T02:30:44;7.80;99.90
55213;DHT22;41083;52.932;6.674;2024-03-02T02:33:09;7.90;99.90
55213;DHT22;41083;52.932;6.674;2024-03-02T02:35:35;7.90;99.90
55213;DHT22;41083;52.932;6.674;2024-03-02T02:38:01;7.90;99.90
55213;DHT22;41083;52.932;6.674;2024-03-02T02:40:27;7.90;99.90
55213;DHT22;41083;52.932;6.674;2024-03-02T02:42:56;7.90;99.90
55213;DHT22;41083;52.932;6.674;2024-03-02T02:45:22;8.00;99.90
55213;DHT22;41083;52.932;6.674;2024-03-02T02:47:47;7.90;99.90
55213;DHT22;41083;52.932;6.674;2024-03-02T02:50:13;8.00;99.90
55213;DHT22;41083;52.932;6.674;2024-03-02T02:52:40;8.00;99.90
55213;DHT22;41083;52.932;6.674;2024-03-02T02:55:10;8.00;99.90
55213;DHT22;41083;52.932;6.674;2024-03-02T02:57:37;8.00;99.90
55213;DHT22;41083;52.932;6.674;2024-03-02T03:00:08;8.10;99.90
55213;DHT22;41083;52.932;6.674;2024-03-02T03:02:41;8.10;99.90
55213;DHT22;41083;52.932;6.674;2024-03-02T03:05:11;8.10;99.90
55213;DHT22;41083;52.932;6.674;2024-03-02T03:07:37;8.10;99.90
55213;DHT22;41083;52.932;6.674;2024-03-02T03:10:05;8.10;99.90
55213;DHT22;41083;52.932;6.674;2024-03-02T03:12:32;8.10;99.90
55213;DHT22;41083;52.932;6.674;2024-03-02T03:14:58;8.10;99.90
55213;DHT22;41083;52.932;6.674;2024-03-02T03:17:24;8.10;99.90
55213;DHT22;41083;52.932;6.674;2024-03-02T03:19:50;8.10;99.90
55213;DHT22;41083;52.932;6.674;2024-03-02T03:22:16;8.10;99.90
55213;DHT22;41083;52.932;6.674;2024-03-02T03:24:42;8.10;99.90
55213;DHT22;41083;52.932;6.674;2024-03-02T03:27:07;8.10;99.90
55213;DHT22;41083;52.932;6.674;2024-03-02T03:29:33;8.10;99.90
55213;DHT22;41083;52.932;6.674;2024-03-02T03:31:59;8.10;99.90
55213;DHT22;41083;52.932;6.674;2024-03-02T03:34:24;8.10;99.90
55213;DHT22;41083;52.932;6.674;2024-03-02T03:36:50;8.10;99.90
55213;DHT22;41083;52.932;6.674;2024-03-02T03:39:15;8.10;99.90
55213;DHT22;41083;52.932;6.674;2024-03-02T03:41:41;8.10;99.90
55213;DHT22;41083;52.932;6.674;2024-03-02T03:44:06;8.10;99.90
55213;DHT22;41083;52.932;6.674;2024-03-02T03:46:32;8.10;99.90
55213;DHT22;41083;52.932;6.674;2024-03-02T03:48:58;8.10;99.90
55213;DHT22;41083;52.932;6.674;2024-03-02T03:51:23;8.00;99.90
55213;DHT22;41083;52.932;6.674;2024-03-02T03:53:49;8.10;99.90
55213;DHT22;41083;52.932;6.674;2024-03-02T03:56:14;8.10;99.90
55213;DHT22;41083;52.932;6.674;2024-03-02T03:58:40;8.00;99.90
55213;DHT22;41083;52.932;6.674;2024-03-02T04:01:06;8.00;99.90
55213;DHT22;41083;52.932;6.674;2024-03-02T04:03:31;8.00;99.90
55213;DHT22;41083;52.932;6.674;2024-03-02T04:05:57;8.00;99.90
55213;DHT22;41083;52.932;6.674;2024-03-02T04:08:23;8.00;99.90
55213;DHT22;41083;52.932;6.674;2024-03-02T04:10:48;8.00;99.90
55213;DHT22;41083;52.932;6.674;2024-03-02T04:13:14;8.00;99.90
55213;DHT22;41083;52.932;6.674;2024-03-02T04:15:39;8.00;99.90
55213;DHT22;41083;52.932;6.674;2024-03-02T04:18:06;8.00;99.90
55213;DHT22;41083;52.932;6.674;2024-03-02T04:20:32;8.00;99.90
55213;DHT22;41083;52.932;6.674;2024-03-02T04:22:57;8.10;99.90
55213;DHT22;41083;52.932;6.674;2024-03-02T04:25:23;8.10;99.90
55213;DHT22;41083;52.932;6.674;2024-03-02T04:27:49;8.00;99.90
55213;DHT22;41083;52.932;6.674;2024-03-02T04:30:14;8.10;99.90
55213;DHT22;41083;52.932;6.674;2024-03-02T04:32:40;8.00;99.90
55213;DHT22;41083;52.932;6.674;2024-03-02T04:35:06;8.00;99.90
55213;DHT22;41083;52.932;6.674;2024-03-02T04:37:34;8.00;99.90
55213;DHT22;41083;52.932;6.674;2024-03-02T04:40:00;8.10;99.90
55213;DHT22;41083;52.932;6.674;2024-03-02T04:42:26;8.00;99.90
55213;DHT22;41083;52.932;6.674;2024-03-02T04:44:51;8.10;99.90
55213;DHT22;41083;52.932;6.674;2024-03-02T04:47:17;8.10;99.90
55213;DHT22;41083;52.932;6.674;2024-03-02T04:49:43;8.10;99.90
55213;DHT22;41083;52.932;6.674;2024-03-02T04:52:09;8.10;99.90
55213;DHT22;41083;52.932;6.674;2024-03-02T04:54:35;8.10;99.90
55213;DHT22;41083;52.932;6.674;2024-03-02T04:57:20;8.10;99.90
55213;DHT22;41083;52.932;6.674;2024-03-02T04:59:46;8.10;99.90
55213;DHT22;41083;52.932;6.674;2024-03-02T05:02:11;8.00;99.90
55213;DHT22;41083;52.932;6.674;2024-03-02T05:04:39;8.10;99.90
55213;DHT22;41083;52.932;6.674;2024-03-02T05:07:05;8.00;99.90
55213;DHT22;41083;52.932;6.674;2024-03-02T05:09:31;8.10;99.90
55213;DHT22;41083;52.932;6.674;2024-03-02T05:11:57;8.00;99.90
55213;DHT22;41083;52.932;6.674;2024-03-02T05:15:01;8.00;99.90
55213;DHT22;41083;52.932;6.674;2024-03-02T05:17:27;8.00;99.90
55213;DHT22;41083;52.932;6.674;2024-03-02T05:19:52;8.00;99.90
55213;DHT22;41083;52.932;6.674;2024-03-02T05:22:18;8.00;99.90
55213;DHT22;41083;52.932;6.674;2024-03-02T05:24:44;8.00;99.90
55213;DHT22;41083;52.932;6.674;2024-03-02T05:27:09;7.90;99.90
55213;DHT22;41083;52.932;6.674;2024-03-02T05:29:35;7.90;99.90
55213;DHT22;41083;52.932;6.674;2024-03-02T05:32:01;7.90;99.90
55213;DHT22;41083;52.932;6.674;2024-03-02T05:34:26;7.90;99.90
55213;DHT22;41083;52.932;6.674;2024-03-02T05:36:52;7.80;99.90
55213;DHT22;41083;52.932;6.674;2024-03-02T05:39:18;7.80;99.90
55213;DHT22;41083;52.932;6.674;2024-03-02T05:41:43;7.80;99.90
55213;DHT22;41083;52.932;6.674;2024-03-02T05:44:09;7.80;99.90
55213;DHT22;41083;52.932;6.674;2024-03-02T05:46:34;7.90;99.90
55213;DHT22;41083;52.932;6.674;2024-03-02T05:49:00;7.80;99.90
55213;DHT22;41083;52.932;6.674;2024-03-02T05:51:26;7.90;99.90
55213;DHT22;41083;52.932;6.674;2024-03-02T05:53:52;7.90;99.90
55213;DHT22;41083;52.932;6.674;2024-03-02T05:56:17;7.90;99.90
55213;DHT22;41083;52.932;6.674;2024-03-02T05:58:43;7.90;99.90
55213;DHT22;41083;52.932;6.674;2024-03-02T06:01:09;7.90;99.90
55213;DHT22;41083;52.932;6.674;2024-03-02T06:03:34;7.90;99.90
55213;DHT22;41083;52.932;6.674;2024-03-02T06:06:00;7.90;99.90
55213;DHT22;41083;52.932;6.674;2024-03-02T06:08:25;7.90;99.90
55213;DHT22;41083;52.932;6.674;2024-03-02T06:10:51;7.80;99.90
55213;DHT22;41083;52.932;6.674;2024-03-02T06:13:17;7.80;99.90
55213;DHT22;41083;52.932;6.674;2024-03-02T06:15:42;7.80;99.90
55213;DHT22;41083;52.932;6.674;2024-03-02T06:18:08;7.80;99.90
55213;DHT22;41083;52.932;6.674;2024-03-02T06:20:34;7.80;99.90
55213;DHT22;41083;52.932;6.674;2024-03-02T06:23:00;7.80;99.90
55213;DHT22;41083;52.932;6.674;2024-03-02T06:25:26;7.80;99.90
55213;DHT22;41083;52.932;6.674;2024-03-02T06:27:52;7.80;99.90
55213;DHT22;41083;52.932;6.674;2024-03-02T06:30:17;7.80;99.90
55213;DHT22;41083;52.932;6.674;2024-03-02T06:32:43;7.80;99.90
55213;DHT22;41083;52.932;6.674;2024-03-02T06:35:09;7.70;99.90
55213;DHT22;41083;52.932;6.674;2024-03-02T06:37:36;7.70;99.90
55213;DHT22;41083;52.932;6.674;2024-03-02T06:40:02;7.70;99.90
55213;DHT22;41083;52.932;6.674;2024-03-02T06:42:28;7.70;99.90
55213;DHT22;41083;52.932;6.674;2024-03-02T06:44:58;7.60;99.90
55213;DHT22;41083;52.932;6.674;2024-03-02T06:47:24;7.60;99.90
55213;DHT22;41083;52.932;6.674;2024-03-02T06:49:50;7.50;99.90
55213;DHT22;41083;52.932;6.674;2024-03-02T06:52:16;7.50;99.90
55213;DHT22;41083;52.932;6.674;2024-03-02T06:54:41;7.60;99.90
55213;DHT22;41083;52.932;6.674;2024-03-02T06:57:07;7.50;99.90
55213;DHT22;41083;52.932;6.674;2024-03-02T06:59:33;7.60;99.90
55213;DHT22;41083;52.932;6.674;2024-03-02T07:01:59;7.60;99.90
55213;DHT22;41083;52.932;6.674;2024-03-02T07:04:24;7.60;99.90
55213;DHT22;41083;52.932;6.674;2024-03-02T07:06:50;7.60;99.90
55213;DHT22;41083;52.932;6.674;2024-03-02T07:09:17;7.60;99.90
55213;DHT22;41083;52.932;6.674;2024-03-02T07:11:42;7.60;99.90
55213;DHT22;41083;52.932;6.674;2024-03-02T07:14:08;7.70;99.90
55213;DHT22;41083;52.932;6.674;2024-03-02T07:16:34;7.60;99.90
55213;DHT22;41083;52.932;6.674;2024-03-02T07:19:03;7.70;99.90
55213;DHT22;41083;52.932;6.674;2024-03-02T07:21:29;7.60;99.90
55213;DHT22;41083;52.932;6.674;2024-03-02T07:23:54;7.60;99.90
55213;DHT22;41083;52.932;6.674;2024-03-02T07:26:20;7.60;99.90
55213;DHT22;41083;52.932;6.674;2024-03-02T07:28:47;7.60;99.90
55213;DHT22;41083;52.932;6.674;2024-03-02T07:31:13;7.60;99.90
55213;DHT22;41083;52.932;6.674;2024-03-02T07:33:39;7.60;99.90
55213;DHT22;41083;52.932;6.674;2024-03-02T07:36:05;7.60;99.90
55213;DHT22;41083;52.932;6.674;2024-03-02T07:38:31;7.60;99.90
55213;DHT22;41083;52.932;6.674;2024-03-02T07:40:59;7.60;99.90
55213;DHT22;41083;52.932;6.674;2024-03-02T07:43:25;7.60;99.90
55213;DHT22;41083;52.932;6.674;2024-03-02T07:45:51;7.60;99.90
55213;DHT22;41083;52.932;6.674;2024-03-02T07:48:17;7.60;99.90
55213;DHT22;41083;52.932;6.674;2024-03-02T07:50:43;7.60;99.90
55213;DHT22;41083;52.932;6.674;2024-03-02T07:53:08;7.60;99.90
55213;DHT22;41083;52.932;6.674;2024-03-02T07:55:34;7.60;99.90
55213;DHT22;41083;52.932;6.674;2024-03-02T07:58:00;7.60;99.90
55213;DHT22;41083;52.932;6.674;2024-03-02T08:00:26;7.60;99.90
55213;DHT22;41083;52.932;6.674;2024-03-02T08:02:53;7.60;99.90
55213;DHT22;41083;52.932;6.674;2024-03-02T08:05:19;7.60;99.90
55213;DHT22;41083;52.932;6.674;2024-03-02T08:07:45;7.60;99.90
55213;DHT22;41083;52.932;6.674;2024-03-02T08:10:12;7.60;99.90
55213;DHT22;41083;52.932;6.674;2024-03-02T08:12:38;7.60;99.90
55213;DHT22;41083;52.932;6.674;2024-03-02T08:15:04;7.60;99.90
55213;DHT22;41083;52.932;6.674;2024-03-02T08:17:30;7.60;99.90
55213;DHT22;41083;52.932;6.674;2024-03-02T08:19:56;7.60;99.90
55213;DHT22;41083;52.932;6.674;2024-03-02T08:22:22;7.70;99.90
55213;DHT22;41083;52.932;6.674;2024-03-02T08:24:48;7.70;99.90
55213;DHT22;41083;52.932;6.674;2024-03-02T08:27:14;7.70;99.90
55213;DHT22;41083;52.932;6.674;2024-03-02T08:29:40;7.70;99.90
55213;DHT22;41083;52.932;6.674;2024-03-02T08:32:07;7.70;99.90
55213;DHT22;41083;52.932;6.674;2024-03-02T08:34:33;7.70;99.90
55213;DHT22;41083;52.932;6.674;2024-03-02T08:37:01;7.70;99.90
55213;DHT22;41083;52.932;6.674;2024-03-02T08:39:27;7.70;99.90
55213;DHT22;41083;52.932;6.674;2024-03-02T08:41:53;7.70;99.90
55213;DHT22;41083;52.932;6.674;2024-03-02T08:44:19;7.70;99.90
55213;DHT22;41083;52.932;6.674;2024-03-02T08:46:45;7.80;99.90
55213;DHT22;41083;52.932;6.674;2024-03-02T08:49:11;7.80;99.90
55213;DHT22;41083;52.932;6.674;2024-03-02T08:51:36;7.80;99.90
55213;DHT22;41083;52.932;6.674;2024-03-02T08:54:02;7.90;99.90
55213;DHT22;41083;52.932;6.674;2024-03-02T08:56:30;7.90;99.90
55213;DHT22;41083;52.932;6.674;2024-03-02T08:58:55;7.90;99.90
55213;DHT22;41083;52.932;6.674;2024-03-02T09:01:21;8.00;99.90
55213;DHT22;41083;52.932;6.674;2024-03-02T09:03:47;8.10;99.90
55213;DHT22;41083;52.932;6.674;2024-03-02T09:06:14;8.10;99.90
55213;DHT22;41083;52.932;6.674;2024-03-02T09:08:42;8.20;99.90
55213;DHT22;41083;52.932;6.674;2024-03-02T09:11:10;8.20;99.90
55213;DHT22;41083;52.932;6.674;2024-03-02T09:13:37;8.30;99.90
55213;DHT22;41083;52.932;6.674;2024-03-02T09:16:03;8.30;99.90
55213;DHT22;41083;52.932;6.674;2024-03-02T09:18:29;8.30;99.90
55213;DHT22;41083;52.932;6.674;2024-03-02T09:20:55;8.30;99.90
55213;DHT22;41083;52.932;6.674;2024-03-02T09:23:21;8.40;99.90
55213;DHT22;41083;52.932;6.674;2024-03-02T09:25:46;8.40;99.90
55213;DHT22;41083;52.932;6.674;2024-03-02T09:28:12;8.50;99.90
55213;DHT22;41083;52.932;6.674;2024-03-02T09:30:38;8.50;99.90
55213;DHT22;41083;52.932;6.674;2024-03-02T09:33:04;8.60;99.90
55213;DHT22;41083;52.932;6.674;2024-03-02T09:35:29;8.60;99.90
55213;DHT22;41083;52.932;6.674;2024-03-02T09:37:55;8.60;99.90
55213;DHT22;41083;52.932;6.674;2024-03-02T09:40:24;8.60;99.90
55213;DHT22;41083;52.932;6.674;2024-03-02T09:42:51;8.60;99.90
55213;DHT22;41083;52.932;6.674;2024-03-02T09:45:24;8.60;99.90
55213;DHT22;41083;52.932;6.674;2024-03-02T09:47:50;8.70;99.90
55213;DHT22;41083;52.932;6.674;2024-03-02T09:50:16;8.80;99.90
55213;DHT22;41083;52.932;6.674;2024-03-02T09:52:48;8.80;99.90
55213;DHT22;41083;52.932;6.674;2024-03-02T09:55:15;8.80;99.90
55213;DHT22;41083;52.932;6.674;2024-03-02T09:57:42;8.90;99.90
55213;DHT22;41083;52.932;6.674;2024-03-02T10:00:08;8.90;99.90
55213;DHT22;41083;52.932;6.674;2024-03-02T10:02:34;8.90;99.90
55213;DHT22;41083;52.932;6.674;2024-03-02T10:05:00;8.90;99.90
55213;DHT22;41083;52.932;6.674;2024-03-02T10:07:25;8.90;99.90
55213;DHT22;41083;52.932;6.674;2024-03-02T10:09:51;8.90;99.90
55213;DHT22;41083;52.932;6.674;2024-03-02T10:12:18;8.90;99.90
55213;DHT22;41083;52.932;6.674;2024-03-02T10:14:44;8.90;99.90
55213;DHT22;41083;52.932;6.674;2024-03-02T10:17:12;8.90;99.90
55213;DHT22;41083;52.932;6.674;2024-03-02T10:19:38;8.90;99.90
55213;DHT22;41083;52.932;6.674;2024-03-02T10:22:06;8.90;99.90
55213;DHT22;41083;52.932;6.674;2024-03-02T10:24:39;9.00;99.90
55213;DHT22;41083;52.932;6.674;2024-03-02T10:27:09;9.00;99.90
55213;DHT22;41083;52.932;6.674;2024-03-02T10:29:39;9.00;99.90
55213;DHT22;41083;52.932;6.674;2024-03-02T10:32:08;9.00;99.90
55213;DHT22;41083;52.932;6.674;2024-03-02T10:34:34;9.10;99.90
55213;DHT22;41083;52.932;6.674;2024-03-02T10:37:00;9.00;99.90
55213;DHT22;41083;52.932;6.674;2024-03-02T10:39:27;9.10;99.90
55213;DHT22;41083;52.932;6.674;2024-03-02T10:41:53;9.10;99.90
55213;DHT22;41083;52.932;6.674;2024-03-02T10:44:22;9.20;99.90
55213;DHT22;41083;52.932;6.674;2024-03-02T10:46:49;9.20;99.90
55213;DHT22;41083;52.932;6.674;2024-03-02T10:49:16;9.30;99.90
55213;DHT22;41083;52.932;6.674;2024-03-02T10:51:43;9.30;99.90
55213;DHT22;41083;52.932;6.674;2024-03-02T10:54:08;9.40;99.90
55213;DHT22;41083;52.932;6.674;2024-03-02T10:56:41;9.40;99.90
55213;DHT22;41083;52.932;6.674;2024-03-02T11:01:39;9.40;99.90
55213;DHT22;41083;52.932;6.674;2024-03-02T11:04:08;9.50;99.90
55213;DHT22;41083;52.932;6.674;2024-03-02T11:06:35;9.50;99.90
55213;DHT22;41083;52.932;6.674;2024-03-02T11:09:07;9.50;99.90
55213;DHT22;41083;52.932;6.674;2024-03-02T11:11:40;9.50;99.90
55213;DHT22;41083;52.932;6.674;2024-03-02T11:14:07;9.60;99.90
55213;DHT22;41083;52.932;6.674;2024-03-02T11:16:36;9.60;99.90
55213;DHT22;41083;52.932;6.674;2024-03-02T11:19:11;9.60;99.90
55213;DHT22;41083;52.932;6.674;2024-03-02T11:21:38;9.70;99.90
55213;DHT22;41083;52.932;6.674;2024-03-02T11:24:28;9.70;99.90
55213;DHT22;41083;52.932;6.674;2024-03-02T11:27:01;9.70;99.90
55213;DHT22;41083;52.932;6.674;2024-03-02T11:34:42;9.80;99.90
55213;DHT22;41083;52.932;6.674;2024-03-02T11:37:10;9.80;99.90
55213;DHT22;41083;52.932;6.674;2024-03-02T11:39:38;9.80;99.90
55213;DHT22;41083;52.932;6.674;2024-03-02T11:42:06;9.80;99.90
55213;DHT22;41083;52.932;6.674;2024-03-02T11:44:36;9.80;99.90
55213;DHT22;41083;52.932;6.674;2024-03-02T11:47:05;9.80;99.90
55213;DHT22;41083;52.932;6.674;2024-03-02T11:49:59;9.80;99.90
55213;DHT22;41083;52.932;6.674;2024-03-02T11:52:25;9.90;99.90
55213;DHT22;41083;52.932;6.674;2024-03-02T11:54:53;9.90;99.90
55213;DHT22;41083;52.932;6.674;2024-03-02T11:57:20;9.90;99.90
55213;DHT22;41083;52.932;6.674;2024-03-02T11:59:48;9.90;99.90
55213;DHT22;41083;52.932;6.674;2024-03-02T12:02:16;9.90;99.90
55213;DHT22;41083;52.932;6.674;2024-03-02T12:04:43;9.90;99.90
55213;DHT22;41083;52.932;6.674;2024-03-02T12:07:10;9.90;99.90
55213;DHT22;41083;52.932;6.674;2024-03-02T12:09:36;9.90;99.90
55213;DHT22;41083;52.932;6.674;2024-03-02T12:12:09;10.00;99.90
55213;DHT22;41083;52.932;6.674;2024-03-02T12:14:37;10.00;99.90
55213;DHT22;41083;52.932;6.674;2024-03-02T12:17:04;10.00;99.90
55213;DHT22;41083;52.932;6.674;2024-03-02T12:19:31;10.00;99.90
55213;DHT22;41083;52.932;6.674;2024-03-02T12:21:57;10.10;99.90
55213;DHT22;41083;52.932;6.674;2024-03-02T12:24:23;10.10;99.90
55213;DHT22;41083;52.932;6.674;2024-03-02T12:26:52;10.20;99.90
55213;DHT22;41083;52.932;6.674;2024-03-02T12:29:19;10.20;99.90
55213;DHT22;41083;52.932;6.674;2024-03-02T12:31:48;10.30;99.90
55213;DHT22;41083;52.932;6.674;2024-03-02T12:34:15;10.30;99.90
55213;DHT22;41083;52.932;6.674;2024-03-02T12:36:41;10.40;99.90
55213;DHT22;41083;52.932;6.674;2024-03-02T12:39:08;10.40;99.90
55213;DHT22;41083;52.932;6.674;2024-03-02T12:41:38;10.40;99.90
55213;DHT22;41083;52.932;6.674;2024-03-02T12:44:05;10.40;99.90
55213;DHT22;41083;52.932;6.674;2024-03-02T12:46:31;10.40;99.90
55213;DHT22;41083;52.932;6.674;2024-03-02T12:48:58;10.40;99.90
55213;DHT22;41083;52.932;6.674;2024-03-02T12:51:24;10.40;99.90
55213;DHT22;41083;52.932;6.674;2024-03-02T12:53:54;10.40;99.90
55213;DHT22;41083;52.932;6.674;2024-03-02T12:56:21;10.50;99.90
55213;DHT22;41083;52.932;6.674;2024-03-02T12:58:46;10.50;99.90
55213;DHT22;41083;52.932;6.674;2024-03-02T13:01:15;10.50;99.90
55213;DHT22;41083;52.932;6.674;2024-03-02T13:03:43;10.60;99.90
55213;DHT22;41083;52.932;6.674;2024-03-02T13:06:08;10.60;99.90
55213;DHT22;41083;52.932;6.674;2024-03-02T13:08:35;10.60;99.90
55213;DHT22;41083;52.932;6.674;2024-03-02T13:11:01;10.60;99.90
55213;DHT22;41083;52.932;6.674;2024-03-02T13:13:30;10.60;99.90
55213;DHT22;41083;52.932;6.674;2024-03-02T13:15:55;10.60;99.90
55213;DHT22;41083;52.932;6.674;2024-03-02T13:18:22;10.70;99.90
55213;DHT22;41083;52.932;6.674;2024-03-02T13:20:47;10.70;99.90
55213;DHT22;41083;52.932;6.674;2024-03-02T13:23:13;10.60;99.90
55213;DHT22;41083;52.932;6.674;2024-03-02T13:25:40;10.70;99.90
55213;DHT22;41083;52.932;6.674;2024-03-02T13:28:06;10.70;99.90
55213;DHT22;41083;52.932;6.674;2024-03-02T13:30:32;10.60;99.90
55213;DHT22;41083;52.932;6.674;2024-03-02T13:32:58;10.60;99.90
55213;DHT22;41083;52.932;6.674;2024-03-02T13:35:24;10.70;99.90
55213;DHT22;41083;52.932;6.674;2024-03-02T13:37:49;10.70;99.90
55213;DHT22;41083;52.932;6.674;2024-03-02T13:40:15;10.70;99.90
55213;DHT22;41083;52.932;6.674;2024-03-02T13:42:46;10.70;99.90
55213;DHT22;41083;52.932;6.674;2024-03-02T13:45:13;10.70;99.90
55213;DHT22;41083;52.932;6.674;2024-03-02T13:47:39;10.70;99.90
55213;DHT22;41083;52.932;6.674;2024-03-02T13:50:04;10.80;99.90
55213;DHT22;41083;52.932;6.674;2024-03-02T13:52:31;10.80;99.90
55213;DHT22;41083;52.932;6.674;2024-03-02T13:54:57;10.80;99.90
55213;DHT22;41083;52.932;6.674;2024-03-02T13:57:22;10.80;99.90
55213;DHT22;41083;52.932;6.674;2024-03-02T13:59:48;10.70;99.90
55213;DHT22;41083;52.932;6.674;2024-03-02T14:02:14;10.70;99.90
55213;DHT22;41083;52.932;6.674;2024-03-02T14:04:40;10.70;99.90
55213;DHT22;41083;52.932;6.674;2024-03-02T14:07:06;10.80;99.90
55213;DHT22;41083;52.932;6.674;2024-03-02T14:09:36;10.70;99.90
55213;DHT22;41083;52.932;6.674;2024-03-02T14:12:02;10.80;99.90
55213;DHT22;41083;52.932;6.674;2024-03-02T14:14:28;10.80;99.90
55213;DHT22;41083;52.932;6.674;2024-03-02T14:16:57;10.80;99.90
55213;DHT22;41083;52.932;6.674;2024-03-02T14:19:26;10.80;99.90
55213;DHT22;41083;52.932;6.674;2024-03-02T14:21:51;10.80;99.90
55213;DHT22;41083;52.932;6.674;2024-03-02T14:24:17;10.80;99.90
55213;DHT22;41083;52.932;6.674;2024-03-02T14:26:43;10.80;99.90
55213;DHT22;41083;52.932;6.674;2024-03-02T14:29:08;10.80;99.90
55213;DHT22;41083;52.932;6.674;2024-03-02T14:31:34;10.80;99.90
55213;DHT22;41083;52.932;6.674;2024-03-02T14:34:00;10.80;99.90
55213;DHT22;41083;52.932;6.674;2024-03-02T14:36:26;10.80;99.90
55213;DHT22;41083;52.932;6.674;2024-03-02T14:38:53;10.80;99.90
55213;DHT22;41083;52.932;6.674;2024-03-02T14:41:19;10.90;99.90
55213;DHT22;41083;52.932;6.674;2024-03-02T14:43:44;10.90;99.90
55213;DHT22;41083;52.932;6.674;2024-03-02T14:46:10;10.90;99.90
55213;DHT22;41083;52.932;6.674;2024-03-02T14:48:37;11.00;99.90
55213;DHT22;41083;52.932;6.674;2024-03-02T14:51:04;11.00;99.90
55213;DHT22;41083;52.932;6.674;2024-03-02T14:53:29;11.00;99.90
55213;DHT22;41083;52.932;6.674;2024-03-02T14:55:55;11.00;99.90
55213;DHT22;41083;52.932;6.674;2024-03-02T14:58:21;11.10;99.90
55213;DHT22;41083;52.932;6.674;2024-03-02T15:00:46;11.10;99.90
55213;DHT22;41083;52.932;6.674;2024-03-02T15:03:12;11.10;99.90
55213;DHT22;41083;52.932;6.674;2024-03-02T15:05:38;11.10;99.90
55213;DHT22;41083;52.932;6.674;2024-03-02T15:08:05;11.10;99.90
55213;DHT22;41083;52.932;6.674;2024-03-02T15:10:31;11.10;99.90
55213;DHT22;41083;52.932;6.674;2024-03-02T15:13:00;11.10;99.90
55213;DHT22;41083;52.932;6.674;2024-03-02T15:15:26;11.10;99.90
55213;DHT22;41083;52.932;6.674;2024-03-02T15:17:52;11.00;99.90
55213;DHT22;41083;52.932;6.674;2024-03-02T15:20:18;11.00;99.90
55213;DHT22;41083;52.932;6.674;2024-03-02T15:22:46;11.00;99.90
55213;DHT22;41083;52.932;6.674;2024-03-02T15:25:12;10.90;99.90
55213;DHT22;41083;52.932;6.674;2024-03-02T15:27:38;10.90;99.90
55213;DHT22;41083;52.932;6.674;2024-03-02T15:30:05;10.90;99.90
55213;DHT22;41083;52.932;6.674;2024-03-02T15:32:33;10.90;99.90
55213;DHT22;41083;52.932;6.674;2024-03-02T15:34:59;10.80;99.90
55213;DHT22;41083;52.932;6.674;2024-03-02T15:37:25;10.80;99.90
55213;DHT22;41083;52.932;6.674;2024-03-02T15:39:51;10.80;99.90
55213;DHT22;41083;52.932;6.674;2024-03-02T15:42:16;10.80;99.90
55213;DHT22;41083;52.932;6.674;2024-03-02T15:44:43;10.70;99.90
55213;DHT22;41083;52.932;6.674;2024-03-02T15:47:09;10.70;99.90
55213;DHT22;41083;52.932;6.674;2024-03-02T15:49:35;10.70;99.90